sensor_id;sensor_type;location;lat;lon;timestamp;P1;durP1;ratioP1;P2;durP2;ratioP2
54428;SDS011;40337;52.978;6.310;2023-05-20T00:00:53;8.82;;;5.65;;
54428;SDS011;40337;52.978;6.310;2023-05-20T00:03:19;9.45;;;5.57;;
54428;SDS011;40337;52.978;6.310;2023-05-20T00:05:45;12.25;;;6.07;;
54428;SDS011;40337;52.978;6.310;2023-05-20T00:08:11;11.25;;;5.47;;
54428;SDS011;40337;52.978;6.310;2023-05-20T00:10:37;9.73;;;5.78;;
54428;SDS011;40337;52.978;6.310;2023-05-20T00:13:02;11.60;;;5.63;;
54428;SDS011;40337;52.978;6.310;2023-05-20T00:15:28;11.48;;;6.50;;
54428;SDS011;40337;52.978;6.310;2023-05-20T00:17:54;12.13;;;6.20;;
54428;SDS011;40337;52.978;6.310;2023-05-20T00:20:21;8.98;;;5.45;;
54428;SDS011;40337;52.978;6.310;2023-05-20T00:22:47;9.30;;;5.70;;
54428;SDS011;40337;52.978;6.310;2023-05-20T00:25:12;9.52;;;5.95;;
54428;SDS011;40337;52.978;6.310;2023-05-20T00:27:39;10.50;;;5.75;;
54428;SDS011;40337;52.978;6.310;2023-05-20T00:30:05;10.68;;;5.65;;
54428;SDS011;40337;52.978;6.310;2023-05-20T00:32:32;11.57;;;5.93;;
54428;SDS011;40337;52.978;6.310;2023-05-20T00:34:58;10.10;;;6.18;;
54428;SDS011;40337;52.978;6.310;2023-05-20T00:37:24;11.50;;;6.32;;
54428;SDS011;40337;52.978;6.310;2023-05-20T00:39:50;10.48;;;6.00;;
54428;SDS011;40337;52.978;6.310;2023-05-20T00:42:20;11.02;;;6.40;;
54428;SDS011;40337;52.978;6.310;2023-05-20T00:44:49;10.85;;;6.45;;
54428;SDS011;40337;52.978;6.310;2023-05-20T00:47:15;11.20;;;6.32;;
54428;SDS011;40337;52.978;6.310;2023-05-20T00:49:43;9.57;;;5.93;;
54428;SDS011;40337;52.978;6.310;2023-05-20T00:52:10;11.35;;;6.50;;
54428;SDS011;40337;52.978;6.310;2023-05-20T00:54:36;12.70;;;6.45;;
54428;SDS011;40337;52.978;6.310;2023-05-20T00:57:03;11.60;;;6.32;;
54428;SDS011;40337;52.978;6.310;2023-05-20T00:59:31;11.90;;;5.97;;
54428;SDS011;40337;52.978;6.310;2023-05-20T01:01:58;9.70;;;6.07;;
54428;SDS011;40337;52.978;6.310;2023-05-20T01:04:23;9.10;;;5.80;;
54428;SDS011;40337;52.978;6.310;2023-05-20T01:06:49;10.55;;;5.82;;
54428;SDS011;40337;52.978;6.310;2023-05-20T01:09:15;9.50;;;6.32;;
54428;SDS011;40337;52.978;6.310;2023-05-20T01:11:43;11.70;;;6.55;;
54428;SDS011;40337;52.978;6.310;2023-05-20T01:14:12;10.55;;;6.05;;
54428;SDS011;40337;52.978;6.310;2023-05-20T01:16:42;11.85;;;6.38;;
54428;SDS011;40337;52.978;6.310;2023-05-20T01:19:14;11.85;;;6.18;;
54428;SDS011;40337;52.978;6.310;2023-05-20T01:21:50;8.88;;;6.20;;
54428;SDS011;40337;52.978;6.310;2023-05-20T01:24:18;11.75;;;6.18;;
54428;SDS011;40337;52.978;6.310;2023-05-20T01:26:43;11.30;;;6.32;;
54428;SDS011;40337;52.978;6.310;2023-05-20T01:29:12;9.93;;;5.80;;
54428;SDS011;40337;52.978;6.310;2023-05-20T01:31:42;8.60;;;5.20;;
54428;SDS011;40337;52.978;6.310;2023-05-20T01:34:08;12.88;;;6.35;;
54428;SDS011;40337;52.978;6.310;2023-05-20T01:36:34;8.82;;;6.10;;
54428;SDS011;40337;52.978;6.310;2023-05-20T01:39:00;10.60;;;6.13;;
54428;SDS011;40337;52.978;6.310;2023-05-20T01:41:27;9.98;;;6.13;;
54428;SDS011;40337;52.978;6.310;2023-05-20T01:43:53;12.50;;;6.53;;
54428;SDS011;40337;52.978;6.310;2023-05-20T01:46:20;11.15;;;6.10;;
54428;SDS011;40337;52.978;6.310;2023-05-20T01:48:45;10.50;;;5.75;;
54428;SDS011;40337;52.978;6.310;2023-05-20T01:51:11;13.70;;;6.63;;
54428;SDS011;40337;52.978;6.310;2023-05-20T01:53:37;10.85;;;6.38;;
54428;SDS011;40337;52.978;6.310;2023-05-20T01:56:03;10.90;;;6.30;;
54428;SDS011;40337;52.978;6.310;2023-05-20T01:58:29;11.60;;;6.38;;
54428;SDS011;40337;52.978;6.310;2023-05-20T02:00:55;12.88;;;6.50;;
54428;SDS011;40337;52.978;6.310;2023-05-20T02:03:20;11.02;;;6.13;;
54428;SDS011;40337;52.978;6.310;2023-05-20T02:05:46;9.13;;;5.65;;
54428;SDS011;40337;52.978;6.310;2023-05-20T02:08:12;10.13;;;6.38;;
54428;SDS011;40337;52.978;6.310;2023-05-20T02:10:37;11.15;;;5.75;;
54428;SDS011;40337;52.978;6.310;2023-05-20T02:13:03;10.43;;;6.45;;
54428;SDS011;40337;52.978;6.310;2023-05-20T02:15:28;9.23;;;5.80;;
54428;SDS011;40337;52.978;6.310;2023-05-20T02:17:54;10.80;;;6.30;;
54428;SDS011;40337;52.978;6.310;2023-05-20T02:20:21;10.05;;;6.20;;
54428;SDS011;40337;52.978;6.310;2023-05-20T02:22:47;10.88;;;5.72;;
54428;SDS011;40337;52.978;6.310;2023-05-20T02:25:13;8.38;;;5.72;;
54428;SDS011;40337;52.978;6.310;2023-05-20T02:27:38;8.38;;;5.43;;
54428;SDS011;40337;52.978;6.310;2023-05-20T02:30:05;9.23;;;5.80;;
54428;SDS011;40337;52.978;6.310;2023-05-20T02:32:31;11.65;;;6.28;;
54428;SDS011;40337;52.978;6.310;2023-05-20T02:34:57;9.88;;;6.03;;
54428;SDS011;40337;52.978;6.310;2023-05-20T02:37:23;11.65;;;6.10;;
54428;SDS011;40337;52.978;6.310;2023-05-20T02:39:48;10.15;;;6.10;;
54428;SDS011;40337;52.978;6.310;2023-05-20T02:42:14;10.63;;;6.05;;
54428;SDS011;40337;52.978;6.310;2023-05-20T02:44:39;8.52;;;5.85;;
54428;SDS011;40337;52.978;6.310;2023-05-20T02:47:05;9.90;;;5.53;;
54428;SDS011;40337;52.978;6.310;2023-05-20T02:49:31;10.88;;;6.10;;
54428;SDS011;40337;52.978;6.310;2023-05-20T02:51:56;11.88;;;5.82;;
54428;SDS011;40337;52.978;6.310;2023-05-20T02:54:22;8.18;;;5.57;;
54428;SDS011;40337;52.978;6.310;2023-05-20T02:56:47;10.82;;;5.70;;
54428;SDS011;40337;52.978;6.310;2023-05-20T02:59:13;9.35;;;5.70;;
54428;SDS011;40337;52.978;6.310;2023-05-20T03:01:39;9.07;;;5.32;;
54428;SDS011;40337;52.978;6.310;2023-05-20T03:04:05;9.52;;;5.72;;
54428;SDS011;40337;52.978;6.310;2023-05-20T03:06:30;7.78;;;5.45;;
54428;SDS011;40337;52.978;6.310;2023-05-20T03:08:56;9.13;;;5.75;;
54428;SDS011;40337;52.978;6.310;2023-05-20T03:11:22;8.60;;;5.30;;
54428;SDS011;40337;52.978;6.310;2023-05-20T03:13:48;8.77;;;5.75;;
54428;SDS011;40337;52.978;6.310;2023-05-20T03:16:13;11.75;;;5.78;;
54428;SDS011;40337;52.978;6.310;2023-05-20T03:18:40;9.93;;;5.70;;
54428;SDS011;40337;52.978;6.310;2023-05-20T03:21:06;9.52;;;5.63;;
54428;SDS011;40337;52.978;6.310;2023-05-20T03:23:32;9.45;;;5.80;;
54428;SDS011;40337;52.978;6.310;2023-05-20T03:25:57;11.00;;;5.95;;
54428;SDS011;40337;52.978;6.310;2023-05-20T03:28:23;9.18;;;5.45;;
54428;SDS011;40337;52.978;6.310;2023-05-20T03:30:48;9.00;;;5.65;;
54428;SDS011;40337;52.978;6.310;2023-05-20T03:33:14;8.98;;;5.38;;
54428;SDS011;40337;52.978;6.310;2023-05-20T03:35:40;8.85;;;5.70;;
54428;SDS011;40337;52.978;6.310;2023-05-20T03:38:05;8.68;;;5.22;;
54428;SDS011;40337;52.978;6.310;2023-05-20T03:40:31;11.13;;;5.85;;
54428;SDS011;40337;52.978;6.310;2023-05-20T03:42:56;8.27;;;5.55;;
54428;SDS011;40337;52.978;6.310;2023-05-20T03:45:22;9.00;;;5.80;;
54428;SDS011;40337;52.978;6.310;2023-05-20T03:47:47;9.85;;;5.78;;
54428;SDS011;40337;52.978;6.310;2023-05-20T03:50:13;9.50;;;5.50;;
54428;SDS011;40337;52.978;6.310;2023-05-20T03:52:39;10.77;;;5.85;;
54428;SDS011;40337;52.978;6.310;2023-05-20T03:55:05;7.70;;;5.35;;
54428;SDS011;40337;52.978;6.310;2023-05-20T03:57:30;7.57;;;5.00;;
54428;SDS011;40337;52.978;6.310;2023-05-20T03:59:56;9.02;;;5.57;;
54428;SDS011;40337;52.978;6.310;2023-05-20T04:02:22;11.38;;;5.63;;
54428;SDS011;40337;52.978;6.310;2023-05-20T04:04:47;8.98;;;5.68;;
54428;SDS011;40337;52.978;6.310;2023-05-20T04:07:16;7.57;;;4.97;;
54428;SDS011;40337;52.978;6.310;2023-05-20T04:09:42;8.40;;;5.13;;
54428;SDS011;40337;52.978;6.310;2023-05-20T04:12:08;8.45;;;5.38;;
54428;SDS011;40337;52.978;6.310;2023-05-20T04:14:33;7.35;;;5.00;;
54428;SDS011;40337;52.978;6.310;2023-05-20T04:17:01;8.55;;;5.65;;
54428;SDS011;40337;52.978;6.310;2023-05-20T04:19:28;7.20;;;5.32;;
54428;SDS011;40337;52.978;6.310;2023-05-20T04:21:54;7.35;;;5.10;;
54428;SDS011;40337;52.978;6.310;2023-05-20T04:24:20;8.07;;;4.85;;
54428;SDS011;40337;52.978;6.310;2023-05-20T04:26:49;7.85;;;5.00;;
54428;SDS011;40337;52.978;6.310;2023-05-20T04:29:18;7.40;;;5.30;;
54428;SDS011;40337;52.978;6.310;2023-05-20T04:31:46;7.72;;;4.75;;
54428;SDS011;40337;52.978;6.310;2023-05-20T04:34:13;7.93;;;4.82;;
54428;SDS011;40337;52.978;6.310;2023-05-20T04:36:39;7.72;;;4.95;;
54428;SDS011;40337;52.978;6.310;2023-05-20T04:39:04;6.85;;;4.75;;
54428;SDS011;40337;52.978;6.310;2023-05-20T04:41:32;8.88;;;4.72;;
54428;SDS011;40337;52.978;6.310;2023-05-20T04:43:57;6.22;;;4.00;;
54428;SDS011;40337;52.978;6.310;2023-05-20T04:46:24;8.20;;;4.53;;
54428;SDS011;40337;52.978;6.310;2023-05-20T04:48:50;6.63;;;4.35;;
54428;SDS011;40337;52.978;6.310;2023-05-20T04:51:16;6.70;;;4.43;;
54428;SDS011;40337;52.978;6.310;2023-05-20T04:53:42;7.43;;;4.45;;
54428;SDS011;40337;52.978;6.310;2023-05-20T04:56:09;7.15;;;4.47;;
54428;SDS011;40337;52.978;6.310;2023-05-20T04:58:35;7.40;;;4.28;;
54428;SDS011;40337;52.978;6.310;2023-05-20T05:01:00;7.53;;;4.28;;
54428;SDS011;40337;52.978;6.310;2023-05-20T05:03:26;7.45;;;4.18;;
54428;SDS011;40337;52.978;6.310;2023-05-20T05:05:55;6.38;;;4.30;;
54428;SDS011;40337;52.978;6.310;2023-05-20T05:08:21;5.55;;;3.60;;
54428;SDS011;40337;52.978;6.310;2023-05-20T05:10:47;7.25;;;3.60;;
54428;SDS011;40337;52.978;6.310;2023-05-20T05:13:12;8.35;;;3.88;;
54428;SDS011;40337;52.978;6.310;2023-05-20T05:15:38;6.35;;;3.78;;
54428;SDS011;40337;52.978;6.310;2023-05-20T05:18:03;6.07;;;3.70;;
54428;SDS011;40337;52.978;6.310;2023-05-20T05:20:29;6.70;;;3.70;;
54428;SDS011;40337;52.978;6.310;2023-05-20T05:22:54;5.68;;;3.20;;
54428;SDS011;40337;52.978;6.310;2023-05-20T05:25:20;6.07;;;3.33;;
54428;SDS011;40337;52.978;6.310;2023-05-20T05:27:45;6.10;;;3.47;;
54428;SDS011;40337;52.978;6.310;2023-05-20T05:30:14;4.95;;;3.10;;
54428;SDS011;40337;52.978;6.310;2023-05-20T05:32:40;6.15;;;2.92;;
54428;SDS011;40337;52.978;6.310;2023-05-20T05:35:05;5.93;;;3.17;;
54428;SDS011;40337;52.978;6.310;2023-05-20T05:37:31;5.85;;;2.85;;
54428;SDS011;40337;52.978;6.310;2023-05-20T05:39:57;5.28;;;3.03;;
54428;SDS011;40337;52.978;6.310;2023-05-20T05:42:22;5.05;;;2.50;;
54428;SDS011;40337;52.978;6.310;2023-05-20T05:44:48;4.18;;;2.50;;
54428;SDS011;40337;52.978;6.310;2023-05-20T05:47:13;4.32;;;2.50;;
54428;SDS011;40337;52.978;6.310;2023-05-20T05:49:39;5.00;;;2.53;;
54428;SDS011;40337;52.978;6.310;2023-05-20T05:52:05;5.85;;;2.78;;
54428;SDS011;40337;52.978;6.310;2023-05-20T05:54:31;5.28;;;2.38;;
54428;SDS011;40337;52.978;6.310;2023-05-20T05:56:56;6.43;;;2.70;;
54428;SDS011;40337;52.978;6.310;2023-05-20T05:59:22;3.90;;;2.33;;
54428;SDS011;40337;52.978;6.310;2023-05-20T06:01:47;4.60;;;2.40;;
54428;SDS011;40337;52.978;6.310;2023-05-20T06:04:13;4.07;;;2.53;;
54428;SDS011;40337;52.978;6.310;2023-05-20T06:06:42;9.80;;;2.38;;
54428;SDS011;40337;52.978;6.310;2023-05-20T06:09:07;4.72;;;2.25;;
54428;SDS011;40337;52.978;6.310;2023-05-20T06:11:33;4.80;;;2.40;;
54428;SDS011;40337;52.978;6.310;2023-05-20T06:13:59;4.97;;;2.05;;
54428;SDS011;40337;52.978;6.310;2023-05-20T06:16:25;4.88;;;2.10;;
54428;SDS011;40337;52.978;6.310;2023-05-20T06:18:51;4.88;;;2.00;;
54428;SDS011;40337;52.978;6.310;2023-05-20T06:21:20;4.22;;;2.08;;
54428;SDS011;40337;52.978;6.310;2023-05-20T06:23:47;3.63;;;1.80;;
54428;SDS011;40337;52.978;6.310;2023-05-20T06:26:12;4.25;;;1.77;;
54428;SDS011;40337;52.978;6.310;2023-05-20T06:28:38;3.85;;;1.98;;
54428;SDS011;40337;52.978;6.310;2023-05-20T06:31:03;3.70;;;1.73;;
54428;SDS011;40337;52.978;6.310;2023-05-20T06:33:30;3.75;;;2.00;;
54428;SDS011;40337;52.978;6.310;2023-05-20T06:35:56;4.53;;;1.90;;
54428;SDS011;40337;52.978;6.310;2023-05-20T06:38:22;5.20;;;2.30;;
54428;SDS011;40337;52.978;6.310;2023-05-20T06:40:48;4.32;;;1.95;;
54428;SDS011;40337;52.978;6.310;2023-05-20T06:43:14;3.38;;;1.90;;
54428;SDS011;40337;52.978;6.310;2023-05-20T06:45:40;4.32;;;2.00;;
54428;SDS011;40337;52.978;6.310;2023-05-20T06:48:06;4.53;;;2.05;;
54428;SDS011;40337;52.978;6.310;2023-05-20T06:50:31;3.95;;;2.15;;
54428;SDS011;40337;52.978;6.310;2023-05-20T06:52:57;5.07;;;1.95;;
54428;SDS011;40337;52.978;6.310;2023-05-20T06:55:23;4.68;;;2.03;;
54428;SDS011;40337;52.978;6.310;2023-05-20T06:57:48;4.90;;;2.00;;
54428;SDS011;40337;52.978;6.310;2023-05-20T07:00:14;3.30;;;1.70;;
54428;SDS011;40337;52.978;6.310;2023-05-20T07:02:40;6.30;;;2.13;;
54428;SDS011;40337;52.978;6.310;2023-05-20T07:05:06;3.10;;;1.70;;
54428;SDS011;40337;52.978;6.310;2023-05-20T07:07:32;4.20;;;2.10;;
54428;SDS011;40337;52.978;6.310;2023-05-20T07:09:57;3.88;;;1.83;;
54428;SDS011;40337;52.978;6.310;2023-05-20T07:12:23;4.40;;;1.77;;
54428;SDS011;40337;52.978;6.310;2023-05-20T07:14:49;4.10;;;2.00;;
54428;SDS011;40337;52.978;6.310;2023-05-20T07:17:14;8.95;;;2.50;;
54428;SDS011;40337;52.978;6.310;2023-05-20T07:19:40;4.93;;;1.92;;
54428;SDS011;40337;52.978;6.310;2023-05-20T07:22:06;5.15;;;1.88;;
54428;SDS011;40337;52.978;6.310;2023-05-20T07:24:32;5.80;;;1.60;;
54428;SDS011;40337;52.978;6.310;2023-05-20T07:26:57;5.38;;;1.80;;
54428;SDS011;40337;52.978;6.310;2023-05-20T07:29:23;4.32;;;1.83;;
54428;SDS011;40337;52.978;6.310;2023-05-20T07:31:49;4.22;;;1.88;;
54428;SDS011;40337;52.978;6.310;2023-05-20T07:34:14;5.90;;;2.30;;
54428;SDS011;40337;52.978;6.310;2023-05-20T07:36:40;5.82;;;2.47;;
54428;SDS011;40337;52.978;6.310;2023-05-20T07:39:06;2.47;;;1.50;;
54428;SDS011;40337;52.978;6.310;2023-05-20T07:41:32;2.83;;;1.40;;
54428;SDS011;40337;52.978;6.310;2023-05-20T07:43:58;3.10;;;1.52;;
54428;SDS011;40337;52.978;6.310;2023-05-20T07:46:25;3.55;;;1.50;;
54428;SDS011;40337;52.978;6.310;2023-05-20T07:48:51;4.97;;;1.42;;
54428;SDS011;40337;52.978;6.310;2023-05-20T07:51:17;3.22;;;1.77;;
54428;SDS011;40337;52.978;6.310;2023-05-20T07:53:43;3.45;;;1.50;;
54428;SDS011;40337;52.978;6.310;2023-05-20T07:56:08;4.90;;;1.73;;
54428;SDS011;40337;52.978;6.310;2023-05-20T07:58:34;5.22;;;1.90;;
54428;SDS011;40337;52.978;6.310;2023-05-20T08:00:59;2.90;;;1.70;;
54428;SDS011;40337;52.978;6.310;2023-05-20T08:03:25;10.43;;;1.80;;
54428;SDS011;40337;52.978;6.310;2023-05-20T08:05:50;3.47;;;1.80;;
54428;SDS011;40337;52.978;6.310;2023-05-20T08:08:16;3.70;;;1.75;;
54428;SDS011;40337;52.978;6.310;2023-05-20T08:10:42;3.75;;;1.80;;
54428;SDS011;40337;52.978;6.310;2023-05-20T08:13:07;4.03;;;1.80;;
54428;SDS011;40337;52.978;6.310;2023-05-20T08:15:34;4.50;;;1.67;;
54428;SDS011;40337;52.978;6.310;2023-05-20T08:18:00;4.45;;;1.70;;
54428;SDS011;40337;52.978;6.310;2023-05-20T08:20:25;3.15;;;1.60;;
54428;SDS011;40337;52.978;6.310;2023-05-20T08:22:51;4.22;;;1.58;;
54428;SDS011;40337;52.978;6.310;2023-05-20T08:25:17;3.53;;;1.80;;
54428;SDS011;40337;52.978;6.310;2023-05-20T08:27:42;4.65;;;1.88;;
54428;SDS011;40337;52.978;6.310;2023-05-20T08:30:08;3.42;;;1.75;;
54428;SDS011;40337;52.978;6.310;2023-05-20T08:32:35;4.10;;;1.90;;
54428;SDS011;40337;52.978;6.310;2023-05-20T08:35:01;4.03;;;1.70;;
54428;SDS011;40337;52.978;6.310;2023-05-20T08:37:28;4.72;;;2.30;;
54428;SDS011;40337;52.978;6.310;2023-05-20T08:39:54;5.03;;;1.95;;
54428;SDS011;40337;52.978;6.310;2023-05-20T08:42:23;3.70;;;1.98;;
54428;SDS011;40337;52.978;6.310;2023-05-20T08:44:51;4.28;;;1.98;;
54428;SDS011;40337;52.978;6.310;2023-05-20T08:47:21;5.60;;;1.92;;
54428;SDS011;40337;52.978;6.310;2023-05-20T08:49:50;4.57;;;1.80;;
54428;SDS011;40337;52.978;6.310;2023-05-20T08:52:16;4.25;;;2.00;;
54428;SDS011;40337;52.978;6.310;2023-05-20T08:54:46;4.80;;;1.83;;
54428;SDS011;40337;52.978;6.310;2023-05-20T08:57:13;3.97;;;1.70;;
54428;SDS011;40337;52.978;6.310;2023-05-20T08:59:42;4.88;;;1.90;;
54428;SDS011;40337;52.978;6.310;2023-05-20T09:02:09;3.90;;;1.83;;
54428;SDS011;40337;52.978;6.310;2023-05-20T09:04:35;4.40;;;2.10;;
54428;SDS011;40337;52.978;6.310;2023-05-20T09:07:02;8.13;;;1.95;;
54428;SDS011;40337;52.978;6.310;2023-05-20T09:09:31;9.40;;;2.00;;
54428;SDS011;40337;52.978;6.310;2023-05-20T09:11:58;3.63;;;1.80;;
54428;SDS011;40337;52.978;6.310;2023-05-20T09:14:24;3.10;;;1.80;;
54428;SDS011;40337;52.978;6.310;2023-05-20T09:16:51;4.07;;;2.00;;
54428;SDS011;40337;52.978;6.310;2023-05-20T09:19:21;5.90;;;2.20;;
54428;SDS011;40337;52.978;6.310;2023-05-20T09:21:48;3.70;;;2.00;;
54428;SDS011;40337;52.978;6.310;2023-05-20T09:24:23;4.63;;;2.00;;
54428;SDS011;40337;52.978;6.310;2023-05-20T09:26:50;4.47;;;2.00;;
54428;SDS011;40337;52.978;6.310;2023-05-20T09:29:16;6.63;;;2.20;;
54428;SDS011;40337;52.978;6.310;2023-05-20T09:31:45;4.78;;;2.40;;
54428;SDS011;40337;52.978;6.310;2023-05-20T09:34:11;4.47;;;2.10;;
54428;SDS011;40337;52.978;6.310;2023-05-20T09:36:37;3.63;;;2.17;;
54428;SDS011;40337;52.978;6.310;2023-05-20T09:39:05;4.75;;;2.00;;
54428;SDS011;40337;52.978;6.310;2023-05-20T09:44:46;6.38;;;1.90;;
54428;SDS011;40337;52.978;6.310;2023-05-20T09:47:14;4.28;;;1.83;;
54428;SDS011;40337;52.978;6.310;2023-05-20T09:49:41;5.85;;;1.95;;
54428;SDS011;40337;52.978;6.310;2023-05-20T09:52:07;3.70;;;2.10;;
54428;SDS011;40337;52.978;6.310;2023-05-20T09:54:34;3.70;;;1.98;;
54428;SDS011;40337;52.978;6.310;2023-05-20T09:57:00;3.80;;;2.00;;
54428;SDS011;40337;52.978;6.310;2023-05-20T09:59:28;5.47;;;2.00;;
54428;SDS011;40337;52.978;6.310;2023-05-20T10:01:56;4.25;;;2.08;;
54428;SDS011;40337;52.978;6.310;2023-05-20T10:04:22;3.80;;;1.80;;
54428;SDS011;40337;52.978;6.310;2023-05-20T10:10:02;6.05;;;2.13;;
54428;SDS011;40337;52.978;6.310;2023-05-20T10:12:44;6.30;;;2.05;;
54428;SDS011;40337;52.978;6.310;2023-05-20T10:15:46;6.88;;;2.50;;
54428;SDS011;40337;52.978;6.310;2023-05-20T10:20:58;5.20;;;2.17;;
54428;SDS011;40337;52.978;6.310;2023-05-20T10:23:27;4.35;;;2.08;;
54428;SDS011;40337;52.978;6.310;2023-05-20T10:25:54;6.85;;;2.28;;
54428;SDS011;40337;52.978;6.310;2023-05-20T10:28:26;6.85;;;2.35;;
54428;SDS011;40337;52.978;6.310;2023-05-20T10:30:54;4.25;;;2.20;;
54428;SDS011;40337;52.978;6.310;2023-05-20T10:33:20;6.03;;;2.10;;
54428;SDS011;40337;52.978;6.310;2023-05-20T10:35:49;3.28;;;1.75;;
54428;SDS011;40337;52.978;6.310;2023-05-20T10:38:16;4.70;;;2.40;;
54428;SDS011;40337;52.978;6.310;2023-05-20T10:40:42;4.65;;;2.28;;
54428;SDS011;40337;52.978;6.310;2023-05-20T10:43:08;5.25;;;2.28;;
54428;SDS011;40337;52.978;6.310;2023-05-20T10:45:48;3.35;;;1.90;;
54428;SDS011;40337;52.978;6.310;2023-05-20T10:50:50;4.57;;;2.20;;
54428;SDS011;40337;52.978;6.310;2023-05-20T10:53:20;4.25;;;2.00;;
54428;SDS011;40337;52.978;6.310;2023-05-20T10:55:48;5.63;;;1.73;;
54428;SDS011;40337;52.978;6.310;2023-05-20T10:58:15;6.30;;;2.55;;
54428;SDS011;40337;52.978;6.310;2023-05-20T11:00:42;5.05;;;2.03;;
54428;SDS011;40337;52.978;6.310;2023-05-20T11:03:08;7.57;;;2.40;;
54428;SDS011;40337;52.978;6.310;2023-05-20T11:05:34;5.07;;;2.25;;
54428;SDS011;40337;52.978;6.310;2023-05-20T11:08:01;5.20;;;2.42;;
54428;SDS011;40337;52.978;6.310;2023-05-20T11:10:27;5.03;;;1.90;;
54428;SDS011;40337;52.978;6.310;2023-05-20T11:12:55;9.20;;;2.35;;
54428;SDS011;40337;52.978;6.310;2023-05-20T11:15:21;3.92;;;2.08;;
54428;SDS011;40337;52.978;6.310;2023-05-20T11:17:57;3.58;;;2.20;;
54428;SDS011;40337;52.978;6.310;2023-05-20T11:20:25;4.32;;;2.50;;
54428;SDS011;40337;52.978;6.310;2023-05-20T11:22:51;5.80;;;2.50;;
54428;SDS011;40337;52.978;6.310;2023-05-20T11:25:18;4.32;;;2.30;;
54428;SDS011;40337;52.978;6.310;2023-05-20T11:27:44;5.57;;;2.30;;
54428;SDS011;40337;52.978;6.310;2023-05-20T11:30:13;5.18;;;2.20;;
54428;SDS011;40337;52.978;6.310;2023-05-20T11:32:43;5.78;;;2.20;;
54428;SDS011;40337;52.978;6.310;2023-05-20T11:35:23;3.55;;;2.00;;
54428;SDS011;40337;52.978;6.310;2023-05-20T11:38:07;6.43;;;2.38;;
54428;SDS011;40337;52.978;6.310;2023-05-20T11:40:34;7.32;;;1.90;;
54428;SDS011;40337;52.978;6.310;2023-05-20T11:43:00;3.92;;;2.10;;
54428;SDS011;40337;52.978;6.310;2023-05-20T11:45:27;6.75;;;2.15;;
54428;SDS011;40337;52.978;6.310;2023-05-20T11:48:06;5.03;;;2.00;;
54428;SDS011;40337;52.978;6.310;2023-05-20T11:50:33;4.55;;;2.10;;
54428;SDS011;40337;52.978;6.310;2023-05-20T11:53:04;5.15;;;2.10;;
54428;SDS011;40337;52.978;6.310;2023-05-20T11:55:44;4.93;;;2.20;;
54428;SDS011;40337;52.978;6.310;2023-05-20T11:58:20;3.92;;;2.08;;
54428;SDS011;40337;52.978;6.310;2023-05-20T12:00:47;4.90;;;2.10;;
54428;SDS011;40337;52.978;6.310;2023-05-20T12:03:13;3.78;;;1.88;;
54428;SDS011;40337;52.978;6.310;2023-05-20T12:05:38;4.10;;;2.05;;
54428;SDS011;40337;52.978;6.310;2023-05-20T12:08:05;4.07;;;2.20;;
54428;SDS011;40337;52.978;6.310;2023-05-20T12:10:30;4.00;;;1.88;;
54428;SDS011;40337;52.978;6.310;2023-05-20T12:12:56;5.38;;;2.00;;
54428;SDS011;40337;52.978;6.310;2023-05-20T12:15:22;4.43;;;2.20;;
54428;SDS011;40337;52.978;6.310;2023-05-20T12:17:49;4.47;;;2.20;;
54428;SDS011;40337;52.978;6.310;2023-05-20T12:20:16;5.75;;;2.10;;
54428;SDS011;40337;52.978;6.310;2023-05-20T12:22:44;4.43;;;2.10;;
54428;SDS011;40337;52.978;6.310;2023-05-20T12:25:13;5.07;;;2.00;;
54428;SDS011;40337;52.978;6.310;2023-05-20T12:27:40;5.40;;;2.10;;
54428;SDS011;40337;52.978;6.310;2023-05-20T12:30:07;3.72;;;1.83;;
54428;SDS011;40337;52.978;6.310;2023-05-20T12:32:34;3.85;;;1.70;;
54428;SDS011;40337;52.978;6.310;2023-05-20T12:35:00;4.53;;;2.00;;
54428;SDS011;40337;52.978;6.310;2023-05-20T12:37:26;4.65;;;1.92;;
54428;SDS011;40337;52.978;6.310;2023-05-20T12:39:52;6.18;;;1.92;;
54428;SDS011;40337;52.978;6.310;2023-05-20T12:42:17;4.95;;;1.80;;
54428;SDS011;40337;52.978;6.310;2023-05-20T12:44:43;4.50;;;2.20;;
54428;SDS011;40337;52.978;6.310;2023-05-20T12:47:08;4.22;;;1.92;;
54428;SDS011;40337;52.978;6.310;2023-05-20T12:49:34;3.80;;;1.90;;
54428;SDS011;40337;52.978;6.310;2023-05-20T12:52:00;4.63;;;2.00;;
54428;SDS011;40337;52.978;6.310;2023-05-20T12:54:25;3.55;;;1.80;;
54428;SDS011;40337;52.978;6.310;2023-05-20T12:56:53;4.10;;;1.83;;
54428;SDS011;40337;52.978;6.310;2023-05-20T12:59:18;4.38;;;2.00;;
54428;SDS011;40337;52.978;6.310;2023-05-20T13:01:44;3.22;;;1.88;;
54428;SDS011;40337;52.978;6.310;2023-05-20T13:04:10;3.38;;;1.55;;
54428;SDS011;40337;52.978;6.310;2023-05-20T13:06:35;2.80;;;1.70;;
54428;SDS011;40337;52.978;6.310;2023-05-20T13:09:01;5.93;;;1.80;;
54428;SDS011;40337;52.978;6.310;2023-05-20T13:11:26;4.10;;;2.00;;
54428;SDS011;40337;52.978;6.310;2023-05-20T13:13:53;3.35;;;1.90;;
54428;SDS011;40337;52.978;6.310;2023-05-20T13:16:20;4.15;;;1.83;;
54428;SDS011;40337;52.978;6.310;2023-05-20T13:18:46;4.82;;;2.13;;
54428;SDS011;40337;52.978;6.310;2023-05-20T13:21:11;3.83;;;2.17;;
54428;SDS011;40337;52.978;6.310;2023-05-20T13:23:37;13.15;;;2.30;;
54428;SDS011;40337;52.978;6.310;2023-05-20T13:26:04;6.00;;;1.80;;
54428;SDS011;40337;52.978;6.310;2023-05-20T13:28:29;3.80;;;2.08;;
54428;SDS011;40337;52.978;6.310;2023-05-20T13:30:55;4.05;;;1.85;;
54428;SDS011;40337;52.978;6.310;2023-05-20T13:33:20;3.42;;;2.10;;
54428;SDS011;40337;52.978;6.310;2023-05-20T13:35:48;3.38;;;1.95;;
54428;SDS011;40337;52.978;6.310;2023-05-20T13:38:13;5.88;;;2.10;;
54428;SDS011;40337;52.978;6.310;2023-05-20T13:40:39;4.72;;;2.10;;
54428;SDS011;40337;52.978;6.310;2023-05-20T13:43:04;4.57;;;2.00;;
54428;SDS011;40337;52.978;6.310;2023-05-20T13:45:30;5.80;;;2.00;;
54428;SDS011;40337;52.978;6.310;2023-05-20T13:47:56;4.60;;;1.77;;
54428;SDS011;40337;52.978;6.310;2023-05-20T13:50:21;5.10;;;2.15;;
54428;SDS011;40337;52.978;6.310;2023-05-20T13:52:47;5.13;;;2.30;;
54428;SDS011;40337;52.978;6.310;2023-05-20T13:55:13;5.50;;;2.65;;
54428;SDS011;40337;52.978;6.310;2023-05-20T13:57:40;4.20;;;2.30;;
54428;SDS011;40337;52.978;6.310;2023-05-20T14:00:06;6.32;;;2.58;;
54428;SDS011;40337;52.978;6.310;2023-05-20T14:02:33;6.68;;;2.40;;
54428;SDS011;40337;52.978;6.310;2023-05-20T14:04:58;4.40;;;2.30;;
54428;SDS011;40337;52.978;6.310;2023-05-20T14:07:24;6.95;;;1.95;;
54428;SDS011;40337;52.978;6.310;2023-05-20T14:09:49;6.50;;;1.98;;
54428;SDS011;40337;52.978;6.310;2023-05-20T14:12:15;6.43;;;1.92;;
54428;SDS011;40337;52.978;6.310;2023-05-20T14:14:40;4.72;;;2.20;;
54428;SDS011;40337;52.978;6.310;2023-05-20T14:17:06;6.78;;;2.20;;
54428;SDS011;40337;52.978;6.310;2023-05-20T14:19:31;5.05;;;2.30;;
54428;SDS011;40337;52.978;6.310;2023-05-20T14:21:57;5.20;;;2.78;;
54428;SDS011;40337;52.978;6.310;2023-05-20T14:24:25;4.60;;;2.80;;
54428;SDS011;40337;52.978;6.310;2023-05-20T14:26:51;5.13;;;2.63;;
54428;SDS011;40337;52.978;6.310;2023-05-20T14:29:16;5.45;;;2.60;;
54428;SDS011;40337;52.978;6.310;2023-05-20T14:31:42;6.70;;;3.00;;
54428;SDS011;40337;52.978;6.310;2023-05-20T14:34:08;7.30;;;2.60;;
54428;SDS011;40337;52.978;6.310;2023-05-20T14:36:34;37.47;;;4.13;;
54428;SDS011;40337;52.978;6.310;2023-05-20T14:39:00;5.15;;;2.40;;
54428;SDS011;40337;52.978;6.310;2023-05-20T14:41:26;6.70;;;2.80;;
54428;SDS011;40337;52.978;6.310;2023-05-20T14:43:51;5.15;;;2.60;;
54428;SDS011;40337;52.978;6.310;2023-05-20T14:46:17;5.20;;;2.33;;
54428;SDS011;40337;52.978;6.310;2023-05-20T14:48:42;4.78;;;2.50;;
54428;SDS011;40337;52.978;6.310;2023-05-20T14:51:08;6.25;;;2.60;;
54428;SDS011;40337;52.978;6.310;2023-05-20T14:53:33;6.53;;;2.97;;